Terminal Aerodrome Forecast
Issued by NWS Pendleton, OR

Home | Current Version | Previous Version | Text Only | Print | Product List | Glossary On
Versions: 1 2 3 4 5 6 7 8 9 10 11 12 13 14 15 16 17 18 19 20 21 22 23 24
816
FTUS46 KPDT 232045 AAB
TAFPDT
TAF AMD
KPDT 232045Z 2321/2418 32005KT 2SM BR BKN004 OVC012
     FM232200 32005KT 4SM BR SCT010 BKN018
     FM240200 27005KT 2SM BR BKN008 OVC018
     FM241200 17004KT 3SM BR SCT005 BKN015=

USA.gov is the U.S. government's official web portal to all federal, state and local government web resources and services.